Terminal Aerodrome Forecast
Issued by NWS

Home | Current Version | Previous Version | Text Only | Print | Product List | Glossary On
Versions: 1 2 3 4 5 6 7 8 9 10 11 12 13 14 15 16 17 18
000
FTUS43 KIND 180500
TAFHUF
TAF
KHUF 180523Z 1806/1906 00000KT 6SM BR BKN100
      TEMPO 1809/1812 3SM BR BCFG
     FM181300 07007KT P6SM SCT035=

USA.gov is the U.S. government's official web portal to all federal, state and local government web resources and services.